Harrison Township, Michigan
Current Conditions -  °F | °C
As of 6:58 AM on Thursday 23 Oct 2014 (Local Time) from KMTC Reporting Station
Clear Clear  
Wind Chill: 32°   Ceiling: Unl
Heat Index: 37°   Visibility: 10mi
Dew Point: 37°   Wind: 6mph
Humidity: 99%   Direction: 330°NNW
Pressure: 30.22"   Gusts: NA
Location:  42.58°N, 82.83°W
Report Text: KMTC 231058Z AUTO 33005KT 10SM CLR 03/03 A3022 RMK AO2 SLP241 T00260025 $
Loading
Personal Weather Stations






























Interactive Weather Map
Tropical Storm Tracking
New forecast layout! Learn more

10-Day Weather Forecast

Advertisements
Track Severe Weather on mobile